Edwards Creek Valley, Nevada Weather observations

Data are for observation ending at time listed.
 Day   Time    Ave.   Ave.  Ave.  Vector   Max.   Stn.    Total    Solar   Ave.  
  of    of     Air    Rel.  Wind   Wind    Wind   Baro.  Precip.   Rad.    Soil  
Year   Day     Temp.  Hum.  Speed  Dir.    Gust   Pres.                    Temp. 
2014   (PST)    F      %     mph   deg.    mph     mb.     in.     W/m2     F   
------------------------------------------------------------------------------
 242    1:30   65.3    26    3.1   229      5.9    844     0.00       0     74.4
 242    1:40   63.6    27    2.8   252      3.9    844     0.00       0     74.2
 242    1:50   62.5    27    3.9   231      6.1    844     0.00       0     74.0
 242    2:00   61.7    28    2.3   203      6.2    845     0.00       0     73.8
 242    2:10   62.9    27    0.8   196      2.6    844     0.00       0     73.6
 242    2:20   62.7    27    2.8   155      4.4    845     0.00       0     73.4
 242    2:30   62.9    26    4.0   142      4.8    845     0.00       0     73.2
 242    2:40   62.1    27    4.5   157      6.2    845     0.00       0     73.1
 242    2:50   61.6    28    4.7   158      6.6    845     0.00       0     72.9
 242    3:00   61.7    28    4.2   155      5.2    845     0.00       0     72.8
 242    3:10   61.4    28    4.7   163      5.6    845     0.00       0     72.6
 242    3:20   61.8    28    5.2   168      6.5    844     0.00       0     72.5
 242    3:30   62.8    27    4.3   174      5.7    845     0.00       0     72.4
 242    3:40   63.8    27    2.8   238      5.3    845     0.00       0     72.3
 242    3:50   62.8    28    4.6   254      6.1    845     0.00       0     72.2
 242    4:00   63.6    27    6.1   282      9.0    845     0.00       0     72.0
 242    4:10   65.4    25    4.8   251      8.0    845     0.00       0     71.9
 242    4:20   65.4    25    2.5   183      3.7    844     0.00       0     71.8
 242    4:30   65.0    26    3.0   187      3.9    844     0.00       0     71.7
 242    4:40   64.0    27    3.1   203      4.6    844     0.00       0     71.7
 242    4:50   65.0    27    3.0   232      4.8    844     0.00       0     71.6
 242    5:00   61.8    29    2.9   254      4.7    844     0.00       0     71.5
 242    5:10   60.4    30    1.1   357      2.4    844     0.00       0     71.4
 242    5:20   59.1    31    1.4   127      2.4    845     0.00       1     71.3
 242    5:30   58.7    31    3.2   149      4.5    844     0.00       3     71.1
 242    5:40   59.3    30    2.3   151      4.3    845     0.00       6     70.9
 242    5:50   59.4    30    3.0   181      5.8    845     0.00       9     70.7
 242    6:00   55.9    34    3.9   188      5.3    845     0.00      14     70.5
 242    6:10   54.0    36    1.4   176      3.9    845     0.00      24     70.3
 242    6:20   55.6    34    2.2   155      3.2    846     0.00     123     70.1
 242    6:30   59.4    30    2.8   177      3.9    846     0.00     188     69.8
 242    6:40   62.6    28    2.5   169      4.7    846     0.00     223     69.7
 242    6:50   65.9    25    1.0   193      3.1    846     0.00     259     69.8
 242    7:00   67.4    23    1.8    34      3.8    846     0.00     294     69.9
 242    7:10   67.7    23    2.9    48      5.0    846     0.00     333     70.2
 242    7:20   68.3    23    2.9    42      4.3    846     0.00     365     70.6
 242    7:30   70.3    22    2.3    56      4.5    846     0.00     394     71.0
 242    7:40   71.5    20    2.5    37      4.8    846     0.00     424     71.5
 242    7:50   72.8    20    1.9    68      4.2    846     0.00     455     71.9
 242    8:00   73.8    19    1.7    75      4.8    846     0.00     487     72.5
 242    8:10   75.2    18    2.0   154      5.9    846     0.00     518     73.1
 242    8:20   76.2    17    1.9    90      5.0    846     0.00     549     73.7
 242    8:30   77.1    16    5.4   172     11.9    846     0.00     579     74.4
 242    8:40   78.1    15    6.6   197     12.8    847     0.00     611     75.2
 242    8:50   79.0    14    9.6   194     18.2    847     0.00     640     75.8
 242    9:00   79.1    13   10.9   198     17.7    847     0.00     668     76.5
 242    9:10   79.6    13    9.5   203     15.9    847     0.00     694     77.2
 242    9:20   79.7    13   11.6   202     19.4    847     0.00     718     77.8
 242    9:30   79.8    13    9.5   206     17.2    847     0.00     743     78.4
 242    9:40   80.3    12    9.8   218     18.4    846     0.00     764     79.1
 242    9:50   80.6    10   10.4   245     18.7    846     0.00     792     79.7
 242   10:00   81.1    10   10.5   231     17.3    847     0.00     802     80.3
 242   10:10   81.9     9   11.0   227     19.5    847     0.00     827     80.9
 242   10:20   81.6     9   11.8   217     20.8    847     0.00     864     81.6
 242   10:30   82.1     9   10.7   212     26.3    847     0.00     871     82.2
 242   10:40   82.2     9   11.6   202     17.0    846     0.00     906     82.9
 242   10:50   83.0     9   12.5   207     23.2    846     0.00     886     83.6
 242   11:00   83.2     9   12.4   204     19.6    845     0.00     885     84.4
 242   11:10   82.9    10   14.1   204     23.0    845     0.00     889     85.1
 242   11:20   82.8    11   12.9   208     22.7    845     0.00     893     85.7
 242   11:30   82.8    11   11.8   220     22.1    845     0.00     898     86.0
 242   11:40   83.2    10   12.1   204     23.2    845     0.00     903     86.4
 242   11:50   83.1     9   12.1   239     22.1    845     0.00     907     86.9
 242   12:00   83.1     9   11.1   249     21.4    845     0.00     899     87.5
 242   12:10   84.3     9   12.0   237     22.0    845     0.00     906     88.2
 242   12:20   84.6     8   16.0   250     26.3    845     0.00     904     89.0
 242   12:30   83.7     9   14.2   253     25.2    844     0.00     901     89.6
 242   12:40   84.0     8   14.3   246     23.8    844     0.00     880     90.2
 242   12:50   84.3     8   12.3   258     24.2    844     0.00     914     90.8
 242   13:00   84.5     8   13.1   247     23.6    844     0.00     931     91.3
 242   13:10   84.6     9   10.9   251     19.5    844     0.00     890     91.9
 242   13:20   84.6     9   10.2   243     21.8    844     0.00     760     92.5
 242   13:30   84.3    10   14.6   204     23.4    844     0.00     557     93.0
 242   13:40   83.6    10   14.1   219     24.2    844     0.00     419     93.2
 242   13:50   82.9    10   14.2   257     24.5    844     0.00     495     93.2
 242   14:00   83.9    10   13.6   246     33.5    844     0.00     739     92.9
 242   14:10   84.4    10   11.6   241     20.1    844     0.00     764     92.7
 242   14:20   84.7    10   12.2   241     22.4    844     0.00     746     92.8
 242   14:30   84.7    11   12.0   251     20.5    844     0.00     624     93.0
 242   14:40   84.9    11   12.3   247     23.6    843     0.00     739     93.2
 242   14:50   85.3    11   11.0   230     18.6    843     0.00     672     93.4
 242   15:00   84.7    11    9.8   217     21.8    843     0.00     649     93.5
 242   15:10   84.5    11   15.1   265     25.0    843     0.00     628     93.5
 242   15:20   85.2    11   13.7   254     22.3    843     0.00     537     93.1
 242   15:30   84.9    11   15.8   247     28.9    843     0.00     546     92.5
 242   15:40   84.7    11   12.5   228     21.6    843     0.00     480     91.9
 242   15:50   84.4    11   15.4   253     22.3    843     0.00     320     91.4
 242   16:00   84.0    11   11.2   235     18.6    843     0.00     341     90.9
 242   16:10   84.3    11   14.0   245     21.3    843     0.00     237     90.5
 242   16:20   83.7    12   10.6   238     17.5    843     0.00     175     90.2
 242   16:30   83.3    12    8.4   249     15.0    843     0.00     152     90.0
 242   16:40   83.4    12   14.4   265     20.5    843     0.00     246     89.8
 242   16:50   82.9    12   10.8   258     19.8    843     0.00     154     89.5
 242   17:00   82.5    12   10.3   255     15.0    843     0.00     157     89.3
 242   17:10   82.1    13    9.1   264     13.2    843     0.00     129     89.1
 242   17:20   81.8    12   12.2   258     20.0    843     0.00      90     88.8
 242   17:30   81.2    12   11.7   250     20.0    843     0.00      69     88.5
 242   17:40   80.9    12   11.0   252     16.6    843     0.00      57     88.2
 242   17:50   80.3    12   10.5   276     16.7    843     0.00      50     87.9
 242   18:00   79.5    13    8.9   287     12.6    843     0.00      44     87.5
 242   18:10   78.9    13   13.0   299     19.0    843     0.00      27     87.2
 242   18:20   78.2    14   12.2   298     20.7    843     0.00      12     86.8
 242   18:30   77.5    14   11.0   296     16.3    843     0.00       5     86.5
 242   18:40   76.9    14    9.6   297     15.9    842     0.00       2     86.1
 242   18:50   76.2    14    8.0   287     13.2    843     0.00       0     85.7
 242   19:00   76.8    14    9.7   274     17.0    843     0.00       0     85.3
 242   19:10   75.9    15    6.7   267      9.9    843     0.00       0     84.9
 242   19:20   74.5    15    5.7   268      8.0    844     0.00       0     84.6
 242   19:30   74.2    16    6.8   264      9.3    843     0.00       0     84.3
 242   19:40   73.3    16    6.0   264      8.4    843     0.00       0     83.9
 242   19:50   73.3    16    8.0   269     11.0    843     0.00       0     83.6
 242   20:00   73.5    16    7.5   267     10.0    843     0.00       0     83.2
 242   20:10   73.0    17    8.4   266     12.5    844     0.00       0     82.9
 242   20:20   72.5    17    7.9   264     12.9    844     0.00       0     82.6
 242   20:30   72.2    18    8.9   271     12.9    844     0.00       0     82.3
 242   20:40   72.1    18    8.2   269     12.2    844     0.00       0     82.0
 242   20:50   72.2    18    8.2   273     11.5    844     0.00       0     81.7
 242   21:00   71.2    18    5.1   270      8.6    844     0.00       0     81.4
 242   21:10   69.9    19    4.8   264      8.6    844     0.00       0     81.1
 242   21:20   69.9    19    5.7   242     11.2    844     0.00       0     80.8
 242   21:30   70.6    19    4.5   245      9.3    844     0.00       0     80.5
 242   21:40   69.1    20    4.6   235      6.7    844     0.00       0     80.2
 242   21:50   68.1    20    4.8   250      6.9    844     0.00       0     79.9
 242   22:00   67.8    21    4.5   256      6.3    844     0.00       0     79.6
 242   22:10   66.0    22    4.2   247      7.2    844     0.00       0     79.3
 242   22:20   65.4    22    4.9   258      7.5    844     0.00       0     79.0
 242   22:30   66.9    22    7.1   259     11.8    844     0.00       0     78.6
 242   22:40   68.4    21    8.8   266     12.9    844     0.00       0     78.3
 242   22:50   68.2    22    9.4   271     14.0    844     0.00       0     78.0
 242   23:00   68.6    22   10.1   280     15.1    844     0.00       0     77.8
 242   23:10   68.2    23   10.1   278     15.0    844     0.00       0     77.5
 242   23:20   66.8    24    9.0   274     14.0    844     0.00       0     77.3
 242   23:30   66.3    24   10.7   279     18.0    844     0.00       0     77.1
 242   23:40   67.7    24   12.0   272     16.9    844     0.00       0     76.8
 242   23:50   67.4    24   10.3   277     17.8    844     0.00       0     76.6
 243    0:00   66.4    25    9.9   276     15.2    844     0.00       0     76.4
 243    0:10   66.8    25    9.8   278     13.9    845     0.00       0     76.2
 243    0:20   65.7    26    9.7   276     22.1    845     0.00       0     75.9
 243    0:30   66.6    26   11.6   278     19.5    845     0.00       0     75.7
 243    0:40   66.7    26   11.0   277     16.6    845     0.00       0     75.5
 243    0:50   66.0    26    8.6   269     11.8    845     0.00       0     75.3
 243    1:00   65.1    27    8.4   268     12.5    845     0.00       0     75.1
 243    1:10   64.5    28    7.6   267     12.1    845     0.00       0     74.9
 243    1:20   63.5    29    6.7   272      9.3    845     0.00       0     74.7

Return to Carson Sink graphs page.


Western Regional Climate Center,wrcc@dri.edu